Time;durP1;ratioP1;P1;durP2;ratioP2;P2;SDS_P1;SDS_P2;PMS_P1;PMS_P2;Temp;Humidity;BMP_temperature;BMP_pressure;BME280_temperature;BME280_humidity;BME280_pressure;Samples;Min_cycle;Max_cycle;Signal;HPM_P1;HPM_P2
2022/11/19 00:00:23;;;;;;;26.38;21.08;;;11.10;99.90;;;;;;5134602;28;20244;-54
2022/11/19 00:02:53;;;;;;;21.52;18.95;;;11.10;99.90;;;;;;5134241;28;20602;-54
2022/11/19 00:05:18;;;;;;;26.55;20.92;;;11.20;99.90;;;;;;5134348;28;20164;-52
2022/11/19 00:07:44;;;;;;;23.88;20.45;;;11.20;99.90;;;;;;5134108;28;20164;-53
2022/11/19 00:10:10;;;;;;;22.98;19.85;;;11.20;99.90;;;;;;5134850;27;20305;-53
2022/11/19 00:12:54;;;;;;;22.77;20.58;;;11.20;99.90;;;;;;5138370;27;20184;-53
2022/11/19 00:15:20;;;;;;;56.25;33.50;;;11.20;99.90;;;;;;5138528;27;20168;-53
2022/11/19 00:17:46;;;;;;;37.97;25.73;;;11.10;99.90;;;;;;5138285;27;20624;-51
2022/11/19 00:20:13;;;;;;;25.17;18.38;;;11.10;99.90;;;;;;5138311;27;20176;-53
2022/11/19 00:22:40;;;;;;;62.95;33.50;;;11.10;99.90;;;;;;5138112;27;20207;-52
2022/11/19 00:25:06;;;;;;;47.53;30.13;;;11.10;99.90;;;;;;5138359;27;20179;-53
2022/11/19 00:27:32;;;;;;;25.77;21.00;;;11.00;99.90;;;;;;5120073;27;20171;-54
2022/11/19 00:29:58;;;;;;;23.75;21.05;;;11.10;99.90;;;;;;5138110;27;20173;-51
2022/11/19 00:32:23;;;;;;;24.90;22.38;;;11.10;99.90;;;;;;5138157;27;20180;-52
2022/11/19 00:34:49;;;;;;;26.45;23.20;;;11.10;99.90;;;;;;5138004;27;20285;-51
2022/11/19 00:37:15;;;;;;;48.45;33.40;;;11.10;99.90;;;;;;5137903;27;20173;-51
2022/11/19 00:39:41;;;;;;;37.92;29.88;;;11.10;99.90;;;;;;5119701;27;20180;-53
2022/11/19 00:42:06;;;;;;;31.42;25.60;;;11.10;99.90;;;;;;5138229;27;20599;-54
2022/11/19 00:44:32;;;;;;;43.20;30.58;;;11.00;99.90;;;;;;5137948;27;20200;-51
2022/11/19 00:46:57;;;;;;;50.25;33.35;;;11.00;99.90;;;;;;5138185;27;20184;-52
2022/11/19 00:49:23;;;;;;;51.85;33.22;;;10.90;99.90;;;;;;5119532;27;20184;-51
2022/11/19 00:51:49;;;;;;;24.05;21.67;;;10.90;99.90;;;;;;5137567;27;20176;-52
2022/11/19 00:54:14;;;;;;;47.22;33.40;;;10.80;99.90;;;;;;5119482;27;20168;-54
2022/11/19 00:56:40;;;;;;;32.92;23.92;;;10.70;99.90;;;;;;5119400;27;20735;-53
2022/11/19 00:59:06;;;;;;;74.07;40.83;;;10.60;99.90;;;;;;5137419;27;20180;-50
2022/11/19 01:01:32;;;;;;;27.23;24.42;;;10.60;99.90;;;;;;5137616;27;20260;-51
2022/11/19 01:03:58;;;;;;;28.85;25.70;;;10.60;99.90;;;;;;5137389;27;20538;-52
2022/11/19 01:06:24;;;;;;;42.78;29.50;;;10.50;99.90;;;;;;5137264;27;20184;-51
2022/11/19 01:08:51;;;;;;;24.90;22.38;;;10.60;99.90;;;;;;5102093;27;20180;-52
2022/11/19 01:11:26;;;;;;;37.45;28.52;;;10.70;99.90;;;;;;5118979;27;20214;-51
2022/11/19 01:13:52;;;;;;;29.10;25.35;;;10.80;99.90;;;;;;5137328;27;20176;-51
2022/11/19 01:16:24;;;;;;;31.45;27.50;;;10.80;99.90;;;;;;5101921;27;20168;-53
2022/11/19 01:18:50;;;;;;;30.25;27.02;;;10.90;99.90;;;;;;5137221;27;20249;-53
2022/11/19 01:21:18;;;;;;;28.52;24.30;;;10.90;99.90;;;;;;5136809;27;20180;-51
2022/11/19 01:23:45;;;;;;;27.27;23.25;;;10.80;99.90;;;;;;5136531;27;20208;-52
2022/11/19 01:26:11;;;;;;;29.23;23.08;;;10.50;99.90;;;;;;5137074;27;20630;-52
2022/11/19 01:28:37;;;;;;;31.80;25.83;;;10.50;99.90;;;;;;5137084;27;20260;-52
2022/11/19 01:31:08;;;;;;;23.00;20.60;;;10.50;99.90;;;;;;5137089;27;20657;-53
2022/11/19 01:33:34;;;;;;;24.17;21.90;;;10.60;99.90;;;;;;5136717;27;20221;-52
2022/11/19 01:36:04;;;;;;;25.70;23.13;;;10.70;99.90;;;;;;5118670;27;20204;-50
2022/11/19 01:38:30;;;;;;;26.88;24.13;;;10.90;99.90;;;;;;5137335;27;20633;-51
2022/11/19 01:41:00;;;;;;;31.80;27.98;;;10.90;99.90;;;;;;5136842;27;20318;-54
2022/11/19 01:43:48;;;;;;;31.20;27.77;;;10.80;99.90;;;;;;5136551;27;20208;-54
2022/11/19 01:46:17;;;;;;;23.52;21.50;;;10.90;99.90;;;;;;5136818;27;20183;-53
2022/11/19 01:48:51;;;;;;;24.25;22.02;;;10.90;99.90;;;;;;5118230;27;20181;-54
2022/11/19 01:51:34;;;;;;;23.50;21.17;;;10.90;99.90;;;;;;5136636;27;20565;-54
2022/11/19 01:54:07;;;;;;;31.60;27.17;;;10.90;99.90;;;;;;5136799;27;20208;-53
2022/11/19 01:56:33;;;;;;;25.73;22.95;;;10.80;99.90;;;;;;5136446;27;20172;-54
2022/11/19 01:59:04;;;;;;;23.05;20.92;;;10.90;99.90;;;;;;5136521;27;20199;-54
2022/11/19 02:01:31;;;;;;;26.55;23.10;;;10.90;99.90;;;;;;5136511;27;20183;-52
2022/11/19 02:04:00;;;;;;;43.70;30.52;;;10.90;99.90;;;;;;5136284;27;20207;-53
2022/11/19 02:06:28;;;;;;;31.50;24.98;;;10.90;99.90;;;;;;5136321;27;20179;-53
2022/11/19 02:08:53;;;;;;;23.45;21.25;;;10.90;99.90;;;;;;5136166;27;20168;-51
2022/11/19 02:11:35;;;;;;;28.42;25.60;;;10.90;99.90;;;;;;5136317;27;20187;-54
2022/11/19 02:14:29;;;;;;;24.73;22.17;;;11.00;99.90;;;;;;5136192;27;20238;-52
2022/11/19 02:17:20;;;;;;;26.55;24.05;;;10.90;99.90;;;;;;5116254;27;20199;-54
2022/11/19 02:20:16;;;;;;;24.38;21.77;;;11.00;99.90;;;;;;5136120;27;20176;-54
2022/11/19 02:23:00;;;;;;;25.13;22.60;;;11.00;99.90;;;;;;5136091;27;20262;-53
2022/11/19 02:25:38;;;;;;;25.80;23.50;;;11.00;99.90;;;;;;5135948;27;20177;-52
2022/11/19 02:28:06;;;;;;;30.02;26.08;;;11.00;99.90;;;;;;5136051;27;20198;-54
2022/11/19 02:30:40;;;;;;;68.68;37.67;;;11.00;99.90;;;;;;5136432;27;20176;-54
2022/11/19 02:33:13;;;;;;;62.55;38.20;;;11.00;99.90;;;;;;5135608;27;20662;-55
2022/11/19 02:35:48;;;;;;;47.58;34.35;;;10.80;99.90;;;;;;5135641;27;20165;-54
2022/11/19 02:38:37;;;;;;;30.42;26.35;;;10.70;99.90;;;;;;5135470;27;20164;-51
2022/11/19 02:41:34;;;;;;;28.25;25.50;;;10.50;99.90;;;;;;5121633;27;20738;-54
2022/11/19 02:44:57;;;;;;;26.58;23.88;;;10.60;99.90;;;;;;5135446;27;20204;-54
2022/11/19 02:47:01;;;;;;;32.33;27.45;;;10.70;99.90;;;;;;5120796;27;20184;-53
2022/11/19 02:49:32;;;;;;;85.95;41.38;;;10.70;99.90;;;;;;5135527;27;20169;-53
2022/11/19 02:51:59;;;;;;;49.90;33.75;;;10.80;99.90;;;;;;5117055;27;20620;-51
2022/11/19 02:54:26;;;;;;;27.13;24.38;;;10.90;99.90;;;;;;5135289;27;20191;-51
2022/11/19 02:56:54;;;;;;;26.65;24.15;;;10.90;99.90;;;;;;5116948;27;20170;-51
2022/11/19 03:05:31;;;;;;;51.63;31.92;;;10.80;99.90;;;;;;5135056;27;20237;-52
2022/11/19 03:07:57;;;;;;;32.78;27.92;;;10.80;99.90;;;;;;5134940;27;20160;-54
2022/11/19 03:10:29;;;;;;;26.48;23.98;;;10.70;99.90;;;;;;5134972;27;20260;-51
2022/11/19 03:16:40;;;;;;;26.55;23.95;;;10.80;99.90;;;;;;5134908;27;20176;-52
2022/11/19 03:18:36;;;;;;;70.35;40.55;;;10.60;99.90;;;;;;5135147;27;20601;-52
2022/11/19 03:21:20;;;;;;;36.05;29.00;;;10.50;99.90;;;;;;5135129;27;20168;-51
2022/11/19 03:23:54;;;;;;;68.20;40.97;;;10.40;99.90;;;;;;5134583;27;20196;-51
2022/11/19 03:26:45;;;;;;;41.67;30.33;;;10.50;99.90;;;;;;5134906;27;20706;-52
2022/11/19 03:29:12;;;;;;;54.83;34.35;;;10.50;99.90;;;;;;5116372;27;20180;-53
2022/11/19 03:31:44;;;;;;;42.63;30.95;;;10.50;99.90;;;;;;5134784;27;20180;-50
2022/11/19 03:34:16;;;;;;;27.25;24.33;;;10.40;99.90;;;;;;5116144;27;20225;-54
2022/11/19 03:36:43;;;;;;;45.13;33.28;;;10.30;99.90;;;;;;5134739;27;20580;-52
2022/11/19 03:39:13;;;;;;;25.45;22.75;;;10.20;99.90;;;;;;5134654;27;20258;-53
2022/11/19 03:41:41;;;;;;;22.83;20.63;;;10.30;99.90;;;;;;5134506;27;20190;-52
2022/11/19 03:44:22;;;;;;;29.83;26.65;;;10.40;99.90;;;;;;5134348;27;20226;-52
2022/11/19 03:46:53;;;;;;;34.22;28.55;;;10.30;99.90;;;;;;5134191;27;20164;-52
2022/11/19 03:49:26;;;;;;;24.45;22.10;;;10.40;99.90;;;;;;5134583;27;20222;-51
2022/11/19 03:52:09;;;;;;;36.35;29.70;;;10.40;99.90;;;;;;5134531;27;20223;-53
2022/11/19 03:54:35;;;;;;;28.75;25.65;;;10.40;99.90;;;;;;5134371;27;20181;-52
2022/11/19 03:57:02;;;;;;;26.70;24.08;;;10.50;99.90;;;;;;5134376;27;20172;-52
2022/11/19 03:59:28;;;;;;;33.15;27.75;;;10.50;99.90;;;;;;5134109;27;20179;-51
2022/11/19 04:01:57;;;;;;;25.88;23.27;;;10.60;99.90;;;;;;5134248;28;20177;-51
2022/11/19 04:04:35;;;;;;;28.65;25.42;;;10.60;99.90;;;;;;5134321;28;20172;-51
2022/11/19 04:07:20;;;;;;;27.65;24.73;;;10.60;99.90;;;;;;5134504;28;20255;-53
2022/11/19 04:09:47;;;;;;;25.40;22.83;;;10.50;99.90;;;;;;5134070;28;20255;-51
2022/11/19 04:12:18;;;;;;;25.63;23.05;;;10.50;99.90;;;;;;5134584;28;20199;-52
2022/11/19 04:14:44;;;;;;;32.88;26.65;;;10.50;99.90;;;;;;5134225;28;20626;-53
2022/11/19 04:17:10;;;;;;;24.88;22.30;;;10.50;99.90;;;;;;5134071;28;20168;-50
2022/11/19 04:19:36;;;;;;;24.95;22.42;;;10.50;99.90;;;;;;5133952;28;20236;-53
2022/11/19 04:22:02;;;;;;;22.77;20.58;;;10.50;99.90;;;;;;5115690;28;20169;-54
2022/11/19 04:24:28;;;;;;;23.88;21.42;;;10.50;99.90;;;;;;5115815;28;20181;-52
2022/11/19 04:26:54;;;;;;;25.35;22.65;;;10.50;99.90;;;;;;5133975;28;20165;-55
2022/11/19 04:29:19;;;;;;;27.85;24.67;;;10.50;99.90;;;;;;5116057;28;20177;-51
2022/11/19 04:31:45;;;;;;;24.05;21.85;;;10.50;99.90;;;;;;5134003;28;20186;-52
2022/11/19 04:34:11;;;;;;;25.30;22.90;;;10.50;99.90;;;;;;5133856;28;20180;-51
2022/11/19 04:36:39;;;;;;;28.92;25.73;;;10.50;99.90;;;;;;5133850;28;20252;-52
2022/11/19 04:39:04;;;;;;;24.90;22.55;;;10.50;99.90;;;;;;5133698;28;20241;-52
2022/11/19 04:41:30;;;;;;;28.38;24.75;;;10.50;99.90;;;;;;5115626;28;20184;-50
2022/11/19 04:43:56;;;;;;;25.65;22.98;;;10.50;99.90;;;;;;5133867;28;20215;-50
2022/11/19 04:46:21;;;;;;;32.30;25.58;;;10.50;99.90;;;;;;5133791;28;20630;-51
2022/11/19 04:48:47;;;;;;;29.55;25.70;;;10.50;99.90;;;;;;5115381;28;20524;-51
2022/11/19 04:51:13;;;;;;;37.13;27.45;;;10.50;99.90;;;;;;5115436;28;20226;-51
2022/11/19 04:53:38;;;;;;;40.53;29.58;;;10.50;99.90;;;;;;5133631;28;20621;-53
2022/11/19 04:56:05;;;;;;;22.42;20.23;;;10.40;99.90;;;;;;5134479;27;20175;-54
2022/11/19 04:58:30;;;;;;;24.25;21.77;;;10.50;99.90;;;;;;5137529;27;20173;-51
2022/11/19 05:00:56;;;;;;;29.33;24.67;;;10.50;99.90;;;;;;5119372;27;20199;-53
2022/11/19 05:03:21;;;;;;;24.50;21.67;;;10.40;99.90;;;;;;5137402;27;20684;-53
2022/11/19 05:05:47;;;;;;;25.08;22.73;;;10.50;99.90;;;;;;5137428;27;20525;-55
2022/11/19 05:08:13;;;;;;;55.45;36.40;;;10.50;99.90;;;;;;5137250;27;20169;-52
2022/11/19 05:10:38;;;;;;;71.07;42.22;;;10.60;99.90;;;;;;5137788;27;20173;-51
2022/11/19 05:13:04;;;;;;;55.00;35.85;;;10.60;99.90;;;;;;5137466;27;20176;-51
2022/11/19 05:15:30;;;;;;;47.85;32.70;;;10.60;99.90;;;;;;5137222;27;20172;-53
2022/11/19 05:17:55;;;;;;;34.20;29.27;;;10.50;99.90;;;;;;5137198;27;20182;-52
2022/11/19 05:20:21;;;;;;;27.67;24.77;;;10.40;99.90;;;;;;5137114;27;20173;-54
2022/11/19 05:22:46;;;;;;;25.67;23.23;;;10.30;99.90;;;;;;5136916;27;20716;-51
2022/11/19 05:25:12;;;;;;;26.85;24.20;;;10.40;99.90;;;;;;5137024;27;20184;-52
2022/11/19 05:27:38;;;;;;;29.23;26.02;;;10.50;99.90;;;;;;5137129;27;20570;-51
2022/11/19 05:30:04;;;;;;;39.00;31.73;;;10.50;99.90;;;;;;5136984;27;20460;-53
2022/11/19 05:32:29;;;;;;;26.50;24.08;;;10.50;99.90;;;;;;5118551;27;20228;-51
2022/11/19 05:34:55;;;;;;;30.55;27.45;;;10.50;99.90;;;;;;5136840;27;20173;-52
2022/11/19 05:37:21;;;;;;;71.07;41.70;;;10.60;99.90;;;;;;5136623;27;20173;-53
2022/11/19 05:39:46;;;;;;;36.78;31.63;;;10.50;99.90;;;;;;5136494;27;20172;-53
2022/11/19 05:42:12;;;;;;;31.73;28.50;;;10.40;99.90;;;;;;5118418;27;20192;-54
2022/11/19 05:44:37;;;;;;;31.17;27.67;;;10.50;99.90;;;;;;5136821;27;20180;-51
2022/11/19 05:47:03;;;;;;;35.38;31.63;;;10.40;99.90;;;;;;5136633;27;20583;-50
2022/11/19 05:49:29;;;;;;;52.45;38.05;;;10.40;99.90;;;;;;5118369;27;20179;-49
2022/11/19 05:51:54;;;;;;;31.95;28.52;;;10.40;99.90;;;;;;5101166;27;20176;-53
2022/11/19 05:54:20;;;;;;;43.80;34.40;;;10.50;99.90;;;;;;5136585;27;20229;-53
2022/11/19 05:56:46;;;;;;;54.20;40.55;;;10.50;99.90;;;;;;5136426;27;20561;-51
2022/11/19 05:59:11;;;;;;;76.00;50.33;;;10.30;99.90;;;;;;5136570;27;20250;-51
2022/11/19 06:01:37;;;;;;;94.10;51.03;;;10.30;99.90;;;;;;5136448;27;20193;-55
2022/11/19 06:04:02;;;;;;;79.80;43.70;;;9.80;99.90;;;;;;5117931;27;20279;-52
2022/11/19 06:06:28;;;;;;;55.08;37.25;;;9.70;99.90;;;;;;5136234;27;20184;-51
2022/11/19 06:08:54;;;;;;;71.20;40.28;;;9.60;99.90;;;;;;5136117;27;20214;-56
2022/11/19 06:14:03;;;;;;;29.55;23.90;;;9.60;99.90;;;;;;5136500;27;20195;-53
2022/11/19 06:16:29;;;;;;;20.73;18.63;;;9.80;99.90;;;;;;5136078;27;20200;-53
2022/11/19 06:18:55;;;;;;;18.60;16.63;;;9.70;99.90;;;;;;5135997;27;20184;-54
2022/11/19 06:21:21;;;;;;;25.27;18.75;;;9.70;99.90;;;;;;5135839;27;20537;-53
2022/11/19 06:23:46;;;;;;;18.02;15.93;;;9.70;99.90;;;;;;5135981;27;20240;-55
2022/11/19 06:26:29;;;;;;;15.57;13.50;;;9.60;99.90;;;;;;5135982;27;20553;-54
2022/11/19 06:28:55;;;;;;;13.88;11.77;;;9.50;99.90;;;;;;5135834;27;20177;-53
2022/11/19 06:31:21;;;;;;;16.95;15.25;;;9.40;99.90;;;;;;5135679;27;20169;-53
2022/11/19 06:33:48;;;;;;;13.70;11.63;;;9.20;99.90;;;;;;5136112;27;20229;-52
2022/11/19 06:36:14;;;;;;;13.65;10.20;;;9.10;99.90;;;;;;5135827;27;20176;-50
2022/11/19 06:38:40;;;;;;;11.55;10.20;;;9.10;99.90;;;;;;5135713;27;20172;-52
2022/11/19 06:41:05;;;;;;;14.38;12.90;;;9.00;99.90;;;;;;5135370;27;20202;-51
2022/11/19 06:43:31;;;;;;;12.82;9.48;;;9.10;99.90;;;;;;5134956;27;20200;-54
2022/11/19 06:45:57;;;;;;;10.68;9.45;;;8.90;99.90;;;;;;5116854;27;20181;-52
2022/11/19 06:48:22;;;;;;;9.50;8.50;;;8.70;99.90;;;;;;5135801;27;20701;-54
2022/11/19 06:50:48;;;;;;;10.07;7.72;;;8.90;99.90;;;;;;5135384;27;20202;-50
2022/11/19 06:53:14;;;;;;;10.75;8.57;;;8.90;99.90;;;;;;5117120;27;20261;-51
2022/11/19 06:55:40;;;;;;;9.52;8.50;;;8.90;99.90;;;;;;5135183;27;20272;-53
2022/11/19 06:58:06;;;;;;;9.15;7.80;;;8.70;99.90;;;;;;5135124;27;20176;-53
2022/11/19 07:00:33;;;;;;;8.77;7.47;;;8.70;99.90;;;;;;5135051;27;20259;-48
2022/11/19 07:02:59;;;;;;;10.40;8.38;;;8.50;99.90;;;;;;5134893;27;20200;-50
2022/11/19 07:05:25;;;;;;;9.15;8.05;;;8.60;99.90;;;;;;5135111;27;20173;-52
2022/11/19 07:07:51;;;;;;;9.55;7.80;;;8.40;99.90;;;;;;5134985;27;20633;-52
2022/11/19 07:10:16;;;;;;;8.73;7.75;;;8.30;99.90;;;;;;5134956;27;20181;-52
2022/11/19 07:12:42;;;;;;;8.98;8.07;;;8.30;99.90;;;;;;5099506;27;20198;-54
2022/11/19 07:15:08;;;;;;;8.65;7.57;;;8.40;99.90;;;;;;5134769;27;20225;-51
2022/11/19 07:17:34;;;;;;;9.60;7.40;;;8.50;99.90;;;;;;5116641;27;20172;-51
2022/11/19 07:20:00;;;;;;;8.38;6.95;;;8.40;99.90;;;;;;5115729;27;20202;-51
2022/11/19 07:22:26;;;;;;;8.90;8.00;;;8.30;99.90;;;;;;5133760;27;20204;-55
2022/11/19 07:24:52;;;;;;;7.57;6.88;;;8.10;99.90;;;;;;5133068;27;20173;-51
2022/11/19 07:27:17;;;;;;;8.88;7.15;;;7.90;99.90;;;;;;5134298;27;20196;-51
2022/11/19 07:29:43;;;;;;;8.30;7.15;;;7.70;99.90;;;;;;5134360;27;20180;-52
2022/11/19 07:32:09;;;;;;;7.68;6.25;;;7.70;99.90;;;;;;5134600;27;20241;-51
2022/11/19 07:34:34;;;;;;;7.90;6.72;;;7.50;99.90;;;;;;5115836;27;20183;-54
2022/11/19 07:37:00;;;;;;;9.35;7.65;;;7.70;99.90;;;;;;5134387;27;20217;-51
2022/11/19 07:39:26;;;;;;;8.52;6.60;;;7.60;99.90;;;;;;5134536;27;20187;-51
2022/11/19 07:44:35;;;;;;;8.05;7.35;;;7.70;99.90;;;;;;5134430;27;20311;-52
2022/11/19 07:47:01;;;;;;;8.35;6.60;;;7.80;99.90;;;;;;5116013;27;20612;-51
2022/11/19 07:49:27;;;;;;;7.30;6.53;;;7.70;99.90;;;;;;5115616;27;20637;-52
2022/11/19 07:51:53;;;;;;;7.53;6.72;;;7.70;99.90;;;;;;5115308;27;20260;-55
2022/11/19 07:54:19;;;;;;;7.57;6.75;;;7.80;99.90;;;;;;5131530;27;20233;-50
2022/11/19 07:56:44;;;;;;;6.93;5.47;;;7.70;99.90;;;;;;5131988;27;20181;-53
2022/11/19 07:59:11;;;;;;;5.32;4.82;;;7.70;99.90;;;;;;5133666;27;20181;-51
2022/11/19 08:01:37;;;;;;;6.72;6.03;;;7.70;99.90;;;;;;5132577;27;20249;-52
2022/11/19 08:04:04;;;;;;;6.38;5.70;;;7.60;99.90;;;;;;5132626;28;20204;-51
2022/11/19 08:06:32;;;;;;;7.72;6.60;;;7.30;99.90;;;;;;5133952;28;20180;-51
2022/11/19 08:08:58;;;;;;;6.80;5.88;;;7.30;99.90;;;;;;5133935;28;20167;-51
2022/11/19 08:11:24;;;;;;;6.90;6.28;;;7.30;99.90;;;;;;5133915;28;20604;-51
2022/11/19 08:13:50;;;;;;;8.63;7.93;;;7.30;99.90;;;;;;5134023;28;20176;-53
2022/11/19 08:19:17;;;;;;;14.65;13.25;;;7.20;99.90;;;;;;5030356;28;20183;-50
2022/11/19 08:21:45;;;;;;;7.43;6.50;;;7.20;99.90;;;;;;5098190;28;20268;-52
2022/11/19 08:24:13;;;;;;;6.93;6.22;;;7.10;99.90;;;;;;5120162;28;20236;-48
2022/11/19 08:26:39;;;;;;;5.72;4.90;;;7.10;99.90;;;;;;5113217;28;20180;-49
2022/11/19 08:29:05;;;;;;;6.22;5.63;;;6.90;99.90;;;;;;5113196;28;20648;-51
2022/11/19 08:31:31;;;;;;;6.05;5.45;;;6.90;99.90;;;;;;5114704;28;20212;-52
2022/11/19 08:33:57;;;;;;;6.18;5.53;;;7.00;99.90;;;;;;5099189;28;20209;-50
2022/11/19 08:36:23;;;;;;;6.15;5.55;;;7.00;99.90;;;;;;5117058;28;20650;-53
2022/11/19 08:38:48;;;;;;;6.55;5.95;;;7.00;99.90;;;;;;5117592;28;20173;-54
2022/11/19 08:44:00;;;;;;;7.85;7.05;;;7.20;99.90;;;;;;5117335;28;20730;-55
2022/11/19 08:46:26;;;;;;;7.10;5.78;;;7.00;99.90;;;;;;5117251;28;20278;-53
2022/11/19 08:48:51;;;;;;;7.13;6.43;;;6.90;99.90;;;;;;5117082;28;20271;-54
2022/11/19 08:51:17;;;;;;;6.90;6.20;;;6.70;99.90;;;;;;5117077;28;20173;-54
2022/11/19 08:53:43;;;;;;;9.52;7.22;;;6.40;99.90;;;;;;5117236;28;20177;-50
2022/11/19 08:56:09;;;;;;;7.35;6.55;;;6.70;99.90;;;;;;5106359;27;20176;-52
2022/11/19 08:58:35;;;;;;;8.60;6.95;;;6.40;99.90;;;;;;5137618;27;20260;-53
2022/11/19 09:01:09;;;;;;;7.85;6.68;;;6.40;99.90;;;;;;5119148;27;20212;-50
2022/11/19 09:03:34;;;;;;;9.25;7.70;;;6.40;99.90;;;;;;5137398;27;20199;-50
2022/11/19 09:06:00;;;;;;;9.02;7.68;;;6.30;99.90;;;;;;5137097;27;20652;-50
2022/11/19 09:08:26;;;;;;;9.82;8.23;;;6.40;99.90;;;;;;5119233;27;20621;-52
2022/11/19 09:10:51;;;;;;;10.00;8.38;;;6.40;99.90;;;;;;5137587;27;20207;-49
2022/11/19 09:13:17;;;;;;;10.82;8.93;;;6.50;99.90;;;;;;5137374;27;20617;-51
2022/11/19 09:15:43;;;;;;;9.93;7.90;;;6.50;99.90;;;;;;5137329;27;20180;-51
2022/11/19 09:18:08;;;;;;;9.35;8.18;;;6.50;99.90;;;;;;5118751;27;20579;-51
2022/11/19 09:20:34;;;;;;;10.60;7.78;;;6.60;99.90;;;;;;5118377;27;20572;-51
2022/11/19 09:23:00;;;;;;;9.40;8.27;;;6.60;99.90;;;;;;5135845;27;20208;-54
2022/11/19 09:25:26;;;;;;;12.77;9.93;;;6.70;99.90;;;;;;5118496;27;20195;-53
2022/11/19 09:27:52;;;;;;;12.35;10.23;;;6.70;99.90;;;;;;5135550;27;20183;-53
2022/11/19 09:30:17;;;;;;;13.55;10.75;;;6.50;99.90;;;;;;5136853;27;20164;-53
2022/11/19 09:32:43;;;;;;;14.15;10.85;;;6.40;99.90;;;;;;5136830;27;20184;-51
2022/11/19 09:35:09;;;;;;;14.85;11.82;;;6.50;99.90;;;;;;5137111;27;20169;-50
2022/11/19 09:37:35;;;;;;;15.77;12.90;;;6.60;99.90;;;;;;5137007;27;20180;-50
2022/11/19 09:40:01;;;;;;;16.30;12.30;;;6.40;99.90;;;;;;5136760;27;20181;-53
2022/11/19 09:42:34;;;;;;;16.83;13.25;;;6.40;99.90;;;;;;5135793;27;20206;-51
2022/11/19 09:45:02;;;;;;;16.98;13.27;;;6.20;99.90;;;;;;5136555;27;20180;-53
2022/11/19 09:48:04;;;;;;;18.60;14.07;;;6.00;99.90;;;;;;5136853;27;20632;-52
2022/11/19 09:50:53;;;;;;;17.95;14.40;;;6.10;99.90;;;;;;5097218;27;20183;-53
2022/11/19 09:53:21;;;;;;;19.90;15.05;;;6.10;99.90;;;;;;5135535;27;20694;-55
2022/11/19 09:55:49;;;;;;;18.67;15.15;;;6.30;99.90;;;;;;5135164;27;20165;-54
2022/11/19 09:58:24;;;;;;;21.27;15.65;;;6.40;99.90;;;;;;5135610;27;20185;-55
2022/11/19 10:00:49;;;;;;;18.45;14.70;;;6.50;99.90;;;;;;5135093;27;20171;-52
2022/11/19 10:03:22;;;;;;;20.38;15.68;;;6.50;99.90;;;;;;5135501;27;20214;-53
2022/11/19 10:05:53;;;;;;;20.63;15.55;;;6.60;99.90;;;;;;5135095;27;20229;-55
2022/11/19 10:08:43;;;;;;;19.63;17.20;;;6.50;99.90;;;;;;5135187;27;20168;-55
2022/11/19 10:11:46;;;;;;;20.55;16.08;;;6.70;99.90;;;;;;5135369;27;20173;-52
2022/11/19 10:14:59;;;;;;;24.88;20.33;;;6.50;99.90;;;;;;5117399;27;20228;-52
2022/11/19 10:17:49;;;;;;;24.30;17.42;;;6.50;99.90;;;;;;5032618;28;20191;-52
2022/11/19 10:20:48;;;;;;;23.35;17.08;;;6.60;99.90;;;;;;5016230;28;20182;-52
2022/11/19 10:23:58;;;;;;;21.33;17.75;;;6.70;99.90;;;;;;5127802;27;20643;-52
2022/11/19 10:26:35;;;;;;;20.80;16.50;;;6.40;99.90;;;;;;5136056;27;20176;-51
2022/11/19 10:29:09;;;;;;;21.73;17.35;;;6.40;99.90;;;;;;5135815;27;20176;-53
2022/11/19 10:31:38;;;;;;;21.02;16.55;;;6.30;99.90;;;;;;5135998;27;20167;-51
2022/11/19 10:34:16;;;;;;;20.60;16.17;;;6.30;99.90;;;;;;5135823;27;20204;-52
2022/11/19 10:36:46;;;;;;;24.42;19.25;;;6.30;99.90;;;;;;5136139;27;20171;-52
2022/11/19 10:39:41;;;;;;;22.45;17.25;;;6.40;99.90;;;;;;5135706;27;20225;-51
2022/11/19 10:42:34;;;;;;;21.90;16.52;;;6.70;99.90;;;;;;5117461;27;20184;-52
2022/11/19 10:45:08;;;;;;;23.77;17.55;;;6.60;99.90;;;;;;5135500;27;20181;-52
2022/11/19 10:47:46;;;;;;;24.55;17.40;;;6.50;99.90;;;;;;5133227;27;20258;-51
2022/11/19 10:50:20;;;;;;;21.98;17.65;;;6.40;99.90;;;;;;5135095;27;20228;-52
2022/11/19 10:52:54;;;;;;;24.52;18.55;;;6.30;99.90;;;;;;5135018;27;20175;-51
2022/11/19 10:55:33;;;;;;;22.98;17.75;;;6.10;99.90;;;;;;5132796;27;20199;-53
2022/11/19 10:58:16;;;;;;;22.13;18.52;;;6.40;99.90;;;;;;5134604;27;20179;-50
2022/11/19 11:00:43;;;;;;;21.50;16.98;;;6.50;99.90;;;;;;5134149;27;20168;-51
2022/11/19 11:03:32;;;;;;;22.98;18.48;;;6.50;99.90;;;;;;5134881;27;20203;-54
2022/11/19 11:06:05;;;;;;;25.80;18.38;;;6.50;99.90;;;;;;5135179;27;20172;-54
2022/11/19 11:08:32;;;;;;;23.80;18.55;;;6.50;99.90;;;;;;5134944;27;20264;-53
2022/11/19 11:10:59;;;;;;;23.15;18.27;;;6.50;99.90;;;;;;5116773;27;20184;-50
2022/11/19 11:16:44;;;;;;;26.90;20.33;;;6.30;99.90;;;;;;5135177;27;20257;-51
2022/11/19 11:19:17;;;;;;;29.25;21.52;;;6.20;99.90;;;;;;5135135;27;20168;-53
2022/11/19 11:21:43;;;;;;;34.15;23.88;;;6.10;99.90;;;;;;5134948;27;20632;-52
2022/11/19 11:24:13;;;;;;;30.40;22.83;;;6.10;99.90;;;;;;5134833;27;20578;-51
2022/11/19 11:26:39;;;;;;;33.08;22.75;;;6.10;99.90;;;;;;5134585;27;20210;-51
2022/11/19 11:29:11;;;;;;;30.73;22.58;;;6.10;99.90;;;;;;5134682;27;20655;-52
2022/11/19 11:31:44;;;;;;;31.48;22.70;;;6.10;99.90;;;;;;5134521;27;20636;-51
2022/11/19 11:34:27;;;;;;;31.75;23.13;;;6.20;99.90;;;;;;5134981;27;20195;-51
2022/11/19 11:36:54;;;;;;;31.88;22.90;;;6.00;99.90;;;;;;5116373;27;20175;-51
2022/11/19 11:39:26;;;;;;;31.90;23.35;;;5.90;99.90;;;;;;5134610;27;20197;-50
2022/11/19 11:41:53;;;;;;;36.25;26.52;;;5.90;99.90;;;;;;5134888;27;20227;-51
2022/11/19 11:44:22;;;;;;;42.83;31.95;;;5.90;99.90;;;;;;5134562;27;20264;-51
2022/11/19 11:46:56;;;;;;;42.15;31.17;;;5.90;99.90;;;;;;5134829;27;20183;-50
2022/11/19 11:49:33;;;;;;;41.28;27.45;;;5.90;99.90;;;;;;5134581;27;20159;-50
2022/11/19 11:52:10;;;;;;;38.92;26.48;;;5.80;99.90;;;;;;5134242;27;20520;-51
2022/11/19 11:54:37;;;;;;;44.63;31.80;;;5.70;99.90;;;;;;5134679;27;20212;-50
2022/11/19 11:57:16;;;;;;;38.28;26.52;;;5.80;99.90;;;;;;5134513;27;20176;-53
2022/11/19 11:59:42;;;;;;;42.78;27.52;;;5.90;99.90;;;;;;5115721;28;20187;-53
2022/11/19 12:02:22;;;;;;;40.40;27.05;;;6.00;99.90;;;;;;5115924;27;20179;-53
2022/11/19 12:04:51;;;;;;;43.05;27.73;;;5.60;99.90;;;;;;5115809;28;20187;-54
2022/11/19 12:07:31;;;;;;;41.63;27.67;;;5.60;99.90;;;;;;5115390;28;20184;-53
2022/11/19 12:10:06;;;;;;;42.05;26.75;;;5.60;99.90;;;;;;5134131;28;20175;-54
2022/11/19 12:12:41;;;;;;;40.15;26.45;;;5.50;99.90;;;;;;5134127;28;20183;-54
2022/11/19 12:15:33;;;;;;;43.38;27.58;;;5.40;99.90;;;;;;5134159;28;20632;-52
2022/11/19 12:18:19;;;;;;;41.38;27.85;;;5.40;99.90;;;;;;5134612;28;20212;-52
2022/11/19 12:21:00;;;;;;;42.15;27.48;;;5.60;99.90;;;;;;5134257;28;20168;-54
2022/11/19 12:24:02;;;;;;;46.17;28.77;;;5.80;99.90;;;;;;5133954;28;20294;-53
2022/11/19 12:26:43;;;;;;;51.72;29.25;;;5.90;99.90;;;;;;5134137;28;20179;-54
2022/11/19 12:29:15;;;;;;;45.65;30.50;;;5.80;99.90;;;;;;5134038;28;20232;-51
2022/11/19 12:31:55;;;;;;;45.22;29.13;;;5.90;99.90;;;;;;5133939;28;20255;-54
2022/11/19 12:34:35;;;;;;;47.60;29.60;;;6.20;99.90;;;;;;5134195;28;20180;-52
2022/11/19 12:37:01;;;;;;;47.10;30.17;;;6.30;99.90;;;;;;5134129;28;20201;-52
2022/11/19 12:39:46;;;;;;;51.72;31.50;;;6.30;99.90;;;;;;5133727;28;20266;-51
2022/11/19 12:42:23;;;;;;;50.58;30.42;;;6.10;99.90;;;;;;5133690;28;20195;-51
2022/11/19 12:45:20;;;;;;;52.00;31.60;;;6.20;99.90;;;;;;5134207;28;20314;-51
2022/11/19 12:48:11;;;;;;;52.25;32.15;;;6.10;99.90;;;;;;5133945;28;20236;-54
2022/11/19 12:50:50;;;;;;;50.88;32.60;;;6.10;99.90;;;;;;5133699;28;20194;-52
2022/11/19 12:53:36;;;;;;;54.42;31.92;;;6.10;99.90;;;;;;5133771;28;20686;-54
2022/11/19 12:56:27;;;;;;;55.17;32.33;;;6.20;99.90;;;;;;5133942;28;20178;-54
2022/11/19 12:59:22;;;;;;;57.78;32.97;;;5.90;99.90;;;;;;5119932;28;20192;-53
2022/11/19 13:01:51;;;;;;;53.20;31.30;;;5.70;99.90;;;;;;5085539;28;20663;-53
2022/11/19 13:04:26;;;;;;;52.90;31.88;;;5.70;99.90;;;;;;5133683;28;20208;-54
2022/11/19 13:07:12;;;;;;;52.00;32.10;;;5.50;99.90;;;;;;5114799;28;20186;-53
2022/11/19 13:10:02;;;;;;;56.78;31.95;;;5.40;99.90;;;;;;5133510;28;20624;-52
2022/11/19 13:12:49;;;;;;;79.50;46.08;;;5.40;99.90;;;;;;5133717;28;20249;-53
2022/11/19 13:15:38;;;;;;;58.08;32.88;;;5.60;99.90;;;;;;5133625;28;20186;-52
2022/11/19 13:18:11;;;;;;;56.88;33.15;;;5.50;99.90;;;;;;5116025;27;20501;-53